Time;durP1;ratioP1;P1;durP2;ratioP2;P2;SDS_P1;SDS_P2;PMS_P1;PMS_P2;Temp;Humidity;BMP_temperature;BMP_pressure;BME280_temperature;BME280_humidity;BME280_pressure;Samples;Min_cycle;Max_cycle;Signal;HPM_P1;HPM_P2
2021/08/24 00:00:28;;;;;;;;;;;;;;;;;;2116170;27;44210;-74
2021/08/24 00:01:29;;;;;;;;;;;;;;;;;;2114837;27;44971;-74
2021/08/24 00:02:31;;;;;;;;;;;;;;;;;;2114909;28;44311;-73
2021/08/24 00:03:33;;;;;;;;;;;;;;;;;;2114616;28;44065;-73
2021/08/24 00:04:34;;;;;;;;;;;;;;;;;;2114813;28;44079;-73
2021/08/24 00:05:36;;;;;;;;;;;;;;;;;;2114238;27;45280;-73
2021/08/24 00:06:37;;;;;;;;;;;;;;;;;;2114754;28;46413;-73
2021/08/24 00:07:39;;;;;;;;;;;;;;;;;;2114570;27;43881;-73
2021/08/24 00:08:41;;;;;;;;;;;;;;;;;;2114778;28;44100;-73
2021/08/24 00:09:45;;;;;;;;;;;;;;;;;;2114575;28;46537;-73
2021/08/24 00:10:47;;;;;;;;;;;;;;;;;;2114784;28;45535;-73
2021/08/24 00:11:48;;;;;;;;;;;;;;;;;;2114318;28;44031;-73
2021/08/24 00:12:50;;;;;;;;;;;;;;;;;;2114858;28;45049;-73
2021/08/24 00:13:51;;;;;;;;;;;;;;;;;;2114514;27;45272;-73
2021/08/24 00:14:53;;;;;;;;;;;;;;;;;;2114830;28;46490;-73
2021/08/24 00:15:55;;;;;;;;;;;;;;;;;;2114954;27;45216;-74
2021/08/24 00:16:57;;;;;;;;;;;;;;;;;;2115310;27;46539;-74
2021/08/24 00:17:59;;;;;;;;;;;;;;;;;;2114876;27;45225;-74
2021/08/24 00:19:01;;;;;;;;;;;;;;;;;;2115265;27;45320;-74
2021/08/24 00:20:03;;;;;;;;;;;;;;;;;;2114623;28;46548;-74
2021/08/24 00:21:04;;;;;;;;;;;;;;;;;;2114460;28;45498;-74
2021/08/24 00:22:06;;;;;;;;;;;;;;;;;;2115585;28;44041;-74
2021/08/24 00:23:09;;;;;;;;;;;;;;;;;;2114637;28;45411;-73
2021/08/24 00:24:13;;;;;;;;;;;;;;;;;;2115135;28;45206;-74
2021/08/24 00:25:14;;;;;;;;;;;;;;;;;;2114616;27;45572;-73
2021/08/24 00:26:16;;;;;;;;;;;;;;;;;;2114781;27;43925;-74
2021/08/24 00:27:17;;;;;;;;;;;;;;;;;;2115469;28;45245;-74
2021/08/24 00:28:20;;;;;;;;;;;;;;;;;;2115113;27;45398;-73
2021/08/24 00:29:21;;;;;;;;;;;;;;;;;;2114549;28;46452;-74
2021/08/24 00:30:23;;;;;;;;;;;;;;;;;;2114431;28;46550;-74
2021/08/24 00:31:24;;;;;;;;;;;;;;;;;;2114186;28;46629;-74
2021/08/24 00:32:28;;;;;;;;;;;;;;;;;;2115220;27;44467;-74
2021/08/24 00:33:30;;;;;;;;;;;;;;;;;;2114495;28;46632;-73
2021/08/24 00:34:32;;;;;;;;;;;;;;;;;;2115018;28;45357;-72
2021/08/24 00:35:39;;;;;;;;;;;;;;;;;;2114698;28;45766;-73
2021/08/24 00:36:40;;;;;;;;;;;;;;;;;;2114590;28;45398;-73
2021/08/24 00:37:41;;;;;;;;;;;;;;;;;;2114314;28;44572;-73
2021/08/24 00:38:44;;;;;;;;;;;;;;;;;;2114594;28;46680;-71
2021/08/24 00:39:45;;;;;;;;;;;;;;;;;;2115006;28;44357;-72
2021/08/24 00:40:52;;;;;;;;;;;;;;;;;;2114919;28;44973;-71
2021/08/24 00:41:53;;;;;;;;;;;;;;;;;;2114870;28;43924;-71
2021/08/24 00:42:55;;;;;;;;;;;;;;;;;;2114476;28;44015;-71
2021/08/24 00:43:57;;;;;;;;;;;;;;;;;;2114942;27;46708;-72
2021/08/24 00:44:58;;;;;;;;;;;;;;;;;;2106184;28;45831;-71
2021/08/24 00:46:14;;;;;;;;;;;;;;;;;;2115395;28;44333;-71
2021/08/24 00:47:20;;;;;;;;;;;;;;;;;;2121994;27;42711;-72
2021/08/24 00:48:27;;;;;;;;;;;;;;;;;;2122094;28;48488;-71
2021/08/24 00:49:29;;;;;;;;;;;;;;;;;;2121431;27;46699;-71
2021/08/24 00:50:33;;;;;;;;;;;;;;;;;;2123044;27;41836;-72
2021/08/24 00:51:36;;;;;;;;;;;;;;;;;;2114590;28;48078;-72
2021/08/24 00:52:38;;;;;;;;;;;;;;;;;;2114474;28;47244;-72
2021/08/24 00:53:39;;;;;;;;;;;;;;;;;;2114137;28;47367;-72
2021/08/24 00:54:42;;;;;;;;;;;;;;;;;;2114477;28;47391;-72
2021/08/24 00:55:44;;;;;;;;;;;;;;;;;;2114917;27;47314;-72
2021/08/24 00:56:48;;;;;;;;;;;;;;;;;;2115132;27;45739;-73
2021/08/24 00:57:52;;;;;;;;;;;;;;;;;;2114631;27;44455;-73
2021/08/24 00:58:55;;;;;;;;;;;;;;;;;;2114417;28;47052;-73
2021/08/24 00:59:57;;;;;;;;;;;;;;;;;;2114244;28;45957;-73
2021/08/24 01:00:58;;;;;;;;;;;;;;;;;;2114828;27;45290;-74
2021/08/24 01:02:00;;;;;;;;;;;;;;;;;;2114438;27;46015;-73
2021/08/24 01:03:09;;;;;;;;;;;;;;;;;;2114782;28;43583;-73
2021/08/24 01:04:11;;;;;;;;;;;;;;;;;;2114306;28;44842;-73
2021/08/24 01:05:13;;;;;;;;;;;;;;;;;;2114389;28;45870;-73
2021/08/24 01:06:14;;;;;;;;;;;;;;;;;;2114379;28;46119;-73
2021/08/24 01:07:19;;;;;;;;;;;;;;;;;;2106490;28;45784;-73
2021/08/24 01:08:32;;;;;;;;;;;;;;;;;;2114016;28;45055;-73
2021/08/24 01:09:54;;;;;;;;;;;;;;;;;;2107699;28;45381;-73
2021/08/24 01:11:19;;;;;;;;;;;;;;;;;;2114353;27;46382;-73
2021/08/24 01:12:21;;;;;;;;;;;;;;;;;;2114860;27;44657;-73
2021/08/24 01:13:25;;;;;;;;;;;;;;;;;;2114374;28;45272;-73
2021/08/24 01:14:35;;;;;;;;;;;;;;;;;;2114032;27;46655;-73
2021/08/24 01:15:42;;;;;;;;;;;;;;;;;;2113795;27;45094;-73
2021/08/24 01:16:45;;;;;;;;;;;;;;;;;;2114246;28;45203;-73
2021/08/24 01:17:51;;;;;;;;;;;;;;;;;;2114203;28;45097;-73
2021/08/24 01:19:11;;;;;;;;;;;;;;;;;;2113986;28;44375;-73
2021/08/24 01:20:28;;;;;;;;;;;;;;;;;;2108706;28;45197;-73
2021/08/24 01:21:48;;;;;;;;;;;;;;;;;;2114180;28;45103;-73
2021/08/24 01:22:50;;;;;;;;;;;;;;;;;;2114083;28;46396;-73
2021/08/24 01:23:57;;;;;;;;;;;;;;;;;;2114184;28;46646;-73
2021/08/24 01:25:03;;;;;;;;;;;;;;;;;;2114253;28;44266;-73
2021/08/24 01:26:10;;;;;;;;;;;;;;;;;;2114231;28;44270;-73
2021/08/24 01:27:17;;;;;;;;;;;;;;;;;;2114249;28;43951;-73
2021/08/24 01:28:30;;;;;;;;;;;;;;;;;;2114591;28;44088;-73
2021/08/24 01:29:47;;;;;;;;;;;;;;;;;;2107219;28;46624;-73
2021/08/24 01:31:03;;;;;;;;;;;;;;;;;;2107900;28;45493;-73
2021/08/24 01:32:24;;;;;;;;;;;;;;;;;;2114710;28;46954;-73
2021/08/24 01:33:43;;;;;;;;;;;;;;;;;;2114229;28;44657;-72
2021/08/24 01:35:03;;;;;;;;;;;;;;;;;;2114493;28;45663;-72
2021/08/24 01:36:23;;;;;;;;;;;;;;;;;;2114311;28;44803;-72
2021/08/24 01:37:30;;;;;;;;;;;;;;;;;;2113928;28;44050;-72
2021/08/24 01:38:33;;;;;;;;;;;;;;;;;;2114233;28;43914;-73
2021/08/24 01:39:39;;;;;;;;;;;;;;;;;;2114020;28;46605;-73
2021/08/24 01:40:47;;;;;;;;;;;;;;;;;;2113995;28;46541;-72
2021/08/24 01:42:07;;;;;;;;;;;;;;;;;;2113708;28;45483;-73
2021/08/24 01:43:12;;;;;;;;;;;;;;;;;;2114694;28;45584;-73
2021/08/24 01:44:18;;;;;;;;;;;;;;;;;;2113492;27;45532;-73
2021/08/24 01:45:19;;;;;;;;;;;;;;;;;;2114203;28;46445;-73
2021/08/24 01:46:21;;;;;;;;;;;;;;;;;;2113896;28;44345;-72
2021/08/24 01:47:45;;;;;;;;;;;;;;;;;;2114260;28;45017;-73
2021/08/24 01:48:51;;;;;;;;;;;;;;;;;;2114530;28;44077;-72
2021/08/24 01:50:00;;;;;;;;;;;;;;;;;;2113985;28;45299;-72
2021/08/24 01:51:05;;;;;;;;;;;;;;;;;;2113913;28;44067;-72
2021/08/24 01:52:09;;;;;;;;;;;;;;;;;;2113897;28;44422;-73
2021/08/24 01:53:15;;;;;;;;;;;;;;;;;;2114115;28;45309;-73
2021/08/24 01:54:25;;;;;;;;;;;;;;;;;;2114072;28;46496;-73
2021/08/24 01:55:29;;;;;;;;;;;;;;;;;;2114035;28;44323;-73
2021/08/24 01:56:35;;;;;;;;;;;;;;;;;;2114415;28;43649;-73
2021/08/24 01:57:41;;;;;;;;;;;;;;;;;;2106034;28;46364;-73
2021/08/24 01:58:59;;;;;;;;;;;;;;;;;;2106149;28;47361;-73
2021/08/24 02:00:03;;;;;;;;;;;;;;;;;;2113116;28;45739;-73
2021/08/24 02:01:07;;;;;;;;;;;;;;;;;;2113738;28;44479;-73
2021/08/24 02:02:14;;;;;;;;;;;;;;;;;;2113954;28;45984;-73
2021/08/24 02:03:19;;;;;;;;;;;;;;;;;;2114097;28;45588;-72
2021/08/24 02:04:25;;;;;;;;;;;;;;;;;;2113829;28;47524;-73
2021/08/24 02:05:33;;;;;;;;;;;;;;;;;;2106270;28;47441;-74
2021/08/24 02:06:36;;;;;;;;;;;;;;;;;;2105985;28;46948;-73
2021/08/24 02:07:38;;;;;;;;;;;;;;;;;;2105715;28;47058;-73
2021/08/24 02:08:41;;;;;;;;;;;;;;;;;;2114256;28;45741;-73
2021/08/24 02:09:44;;;;;;;;;;;;;;;;;;2113987;28;44631;-73
2021/08/24 02:10:47;;;;;;;;;;;;;;;;;;2113785;28;45221;-74
2021/08/24 02:11:50;;;;;;;;;;;;;;;;;;2113636;28;46197;-74
2021/08/24 02:12:56;;;;;;;;;;;;;;;;;;2113796;27;45794;-74
2021/08/24 02:14:00;;;;;;;;;;;;;;;;;;2114280;28;45721;-74
2021/08/24 02:15:02;;;;;;;;;;;;;;;;;;2113851;27;43583;-74
2021/08/24 02:16:06;;;;;;;;;;;;;;;;;;2114258;28;46180;-74
2021/08/24 02:17:10;;;;;;;;;;;;;;;;;;2114083;28;45910;-74
2021/08/24 02:18:14;;;;;;;;;;;;;;;;;;2114226;28;44306;-73
2021/08/24 02:19:18;;;;;;;;;;;;;;;;;;2113940;28;47030;-73
2021/08/24 02:20:23;;;;;;;;;;;;;;;;;;2106360;28;45839;-74
2021/08/24 02:21:27;;;;;;;;;;;;;;;;;;2113336;28;45238;-74
2021/08/24 02:22:32;;;;;;;;;;;;;;;;;;2106004;28;46389;-74
2021/08/24 02:23:34;;;;;;;;;;;;;;;;;;2114083;28;44008;-74
2021/08/24 02:24:39;;;;;;;;;;;;;;;;;;2113852;28;45151;-75
2021/08/24 02:25:42;;;;;;;;;;;;;;;;;;2113644;28;46254;-74
2021/08/24 02:26:45;;;;;;;;;;;;;;;;;;2105840;28;44052;-74
2021/08/24 02:27:50;;;;;;;;;;;;;;;;;;2113613;28;45112;-74
2021/08/24 02:28:56;;;;;;;;;;;;;;;;;;2105945;28;46804;-74
2021/08/24 02:29:58;;;;;;;;;;;;;;;;;;2113684;28;46272;-74
2021/08/24 02:31:03;;;;;;;;;;;;;;;;;;2113579;28;43566;-74
2021/08/24 02:32:06;;;;;;;;;;;;;;;;;;2113816;28;44279;-74
2021/08/24 02:33:08;;;;;;;;;;;;;;;;;;2113827;28;44178;-74
2021/08/24 02:34:18;;;;;;;;;;;;;;;;;;2113473;28;46454;-75
2021/08/24 02:35:22;;;;;;;;;;;;;;;;;;2106679;28;45403;-75
2021/08/24 02:36:24;;;;;;;;;;;;;;;;;;2113780;28;45423;-74
2021/08/24 02:37:41;;;;;;;;;;;;;;;;;;2113750;28;45865;-74
2021/08/24 02:38:46;;;;;;;;;;;;;;;;;;2107792;28;46437;-75
2021/08/24 02:39:52;;;;;;;;;;;;;;;;;;2113697;28;45646;-74
2021/08/24 02:40:57;;;;;;;;;;;;;;;;;;2113848;28;45402;-75
2021/08/24 02:41:58;;;;;;;;;;;;;;;;;;2113979;28;43584;-74
2021/08/24 02:42:59;;;;;;;;;;;;;;;;;;2114169;28;45208;-74
2021/08/24 02:44:15;;;;;;;;;;;;;;;;;;2113400;28;44193;-74
2021/08/24 02:45:22;;;;;;;;;;;;;;;;;;2113858;28;44721;-74
2021/08/24 02:46:26;;;;;;;;;;;;;;;;;;2113816;27;47198;-74
2021/08/24 02:47:30;;;;;;;;;;;;;;;;;;2113269;28;45579;-73
2021/08/24 02:48:33;;;;;;;;;;;;;;;;;;2104915;28;46696;-73
2021/08/24 02:49:35;;;;;;;;;;;;;;;;;;2113316;28;46505;-74
2021/08/24 02:50:37;;;;;;;;;;;;;;;;;;2113398;28;46839;-74
2021/08/24 02:51:39;;;;;;;;;;;;;;;;;;2105151;28;44439;-73
2021/08/24 02:52:41;;;;;;;;;;;;;;;;;;2113784;28;44059;-74
2021/08/24 02:53:44;;;;;;;;;;;;;;;;;;2113916;28;45367;-74
2021/08/24 02:54:47;;;;;;;;;;;;;;;;;;2113608;28;45804;-74
2021/08/24 02:55:50;;;;;;;;;;;;;;;;;;2113792;28;42556;-74
2021/08/24 02:56:52;;;;;;;;;;;;;;;;;;2113784;28;45437;-74
2021/08/24 02:57:53;;;;;;;;;;;;;;;;;;2113608;28;46547;-74
2021/08/24 02:58:55;;;;;;;;;;;;;;;;;;2113612;28;45797;-74
2021/08/24 02:59:56;;;;;;;;;;;;;;;;;;2113724;28;46602;-73
2021/08/24 03:00:58;;;;;;;;;;;;;;;;;;2113588;28;45507;-74
2021/08/24 03:01:59;;;;;;;;;;;;;;;;;;2105427;28;46692;-74
2021/08/24 03:03:01;;;;;;;;;;;;;;;;;;2113698;28;45845;-74
2021/08/24 03:04:04;;;;;;;;;;;;;;;;;;2113789;28;45495;-74
2021/08/24 03:05:06;;;;;;;;;;;;;;;;;;2105874;28;45572;-74
2021/08/24 03:06:07;;;;;;;;;;;;;;;;;;2105355;28;47591;-74
2021/08/24 03:07:12;;;;;;;;;;;;;;;;;;2113518;28;46053;-75
2021/08/24 03:08:14;;;;;;;;;;;;;;;;;;2113772;28;44577;-72
2021/08/24 03:09:17;;;;;;;;;;;;;;;;;;2113575;28;46172;-72
2021/08/24 03:10:22;;;;;;;;;;;;;;;;;;2113590;28;45771;-72
2021/08/24 03:11:27;;;;;;;;;;;;;;;;;;2113544;28;44269;-72
2021/08/24 03:12:47;;;;;;;;;;;;;;;;;;2114723;28;44529;-72
2021/08/24 03:13:52;;;;;;;;;;;;;;;;;;2114855;28;46990;-72
2021/08/24 03:14:53;;;;;;;;;;;;;;;;;;2121826;27;47264;-73
2021/08/24 03:16:01;;;;;;;;;;;;;;;;;;2124136;27;44641;-72
2021/08/24 03:17:10;;;;;;;;;;;;;;;;;;2123528;27;46971;-73
2021/08/24 03:18:17;;;;;;;;;;;;;;;;;;2116241;27;45819;-73
2021/08/24 03:19:20;;;;;;;;;;;;;;;;;;2123491;27;45819;-73
2021/08/24 03:20:24;;;;;;;;;;;;;;;;;;2124388;27;44718;-73
2021/08/24 03:21:28;;;;;;;;;;;;;;;;;;2123685;27;45806;-73
2021/08/24 03:22:30;;;;;;;;;;;;;;;;;;2123647;27;47361;-73
2021/08/24 03:23:32;;;;;;;;;;;;;;;;;;2114889;27;46931;-73
2021/08/24 03:24:34;;;;;;;;;;;;;;;;;;2115291;27;46093;-72
2021/08/24 03:25:36;;;;;;;;;;;;;;;;;;2123471;27;45972;-72
2021/08/24 03:26:39;;;;;;;;;;;;;;;;;;2123744;27;43977;-73
2021/08/24 03:27:43;;;;;;;;;;;;;;;;;;2115123;27;47284;-72
2021/08/24 03:28:44;;;;;;;;;;;;;;;;;;2123762;27;47096;-72
2021/08/24 03:29:56;;;;;;;;;;;;;;;;;;2115162;27;42843;-72
2021/08/24 03:30:57;;;;;;;;;;;;;;;;;;2116836;27;43860;-73
2021/08/24 03:31:59;;;;;;;;;;;;;;;;;;2123334;27;46565;-73
2021/08/24 03:33:00;;;;;;;;;;;;;;;;;;2123600;27;43860;-73
2021/08/24 03:34:02;;;;;;;;;;;;;;;;;;2124261;27;46458;-73
2021/08/24 03:35:04;;;;;;;;;;;;;;;;;;2124074;27;46694;-73
2021/08/24 03:36:05;;;;;;;;;;;;;;;;;;2114903;27;44929;-73
2021/08/24 03:37:06;;;;;;;;;;;;;;;;;;2115246;27;46820;-74
2021/08/24 03:38:08;;;;;;;;;;;;;;;;;;2114998;27;46539;-74
2021/08/24 03:39:10;;;;;;;;;;;;;;;;;;2115063;27;46332;-73
2021/08/24 03:40:13;;;;;;;;;;;;;;;;;;2115047;27;46414;-73
2021/08/24 03:41:14;;;;;;;;;;;;;;;;;;2123252;27;46349;-73
2021/08/24 03:42:15;;;;;;;;;;;;;;;;;;2124178;27;42515;-73
2021/08/24 03:43:17;;;;;;;;;;;;;;;;;;2123359;27;44866;-73
2021/08/24 03:44:18;;;;;;;;;;;;;;;;;;2113223;28;44676;-73
2021/08/24 03:45:20;;;;;;;;;;;;;;;;;;2106514;28;46761;-73
2021/08/24 03:46:21;;;;;;;;;;;;;;;;;;2106547;28;44374;-74
2021/08/24 03:47:22;;;;;;;;;;;;;;;;;;2115094;28;43344;-73
2021/08/24 03:48:24;;;;;;;;;;;;;;;;;;2114447;28;45223;-73
2021/08/24 03:49:25;;;;;;;;;;;;;;;;;;2114941;28;43154;-73
2021/08/24 03:50:27;;;;;;;;;;;;;;;;;;2123445;27;46519;-73
2021/08/24 03:51:28;;;;;;;;;;;;;;;;;;2114677;28;46454;-73
2021/08/24 03:52:30;;;;;;;;;;;;;;;;;;2106535;28;46050;-73
2021/08/24 03:53:32;;;;;;;;;;;;;;;;;;2106732;28;41724;-73
2021/08/24 03:54:34;;;;;;;;;;;;;;;;;;2114934;28;44769;-73
2021/08/24 03:55:35;;;;;;;;;;;;;;;;;;2123328;27;42709;-73
2021/08/24 03:56:37;;;;;;;;;;;;;;;;;;2123292;27;46418;-73
2021/08/24 03:57:38;;;;;;;;;;;;;;;;;;2114810;28;43847;-73
2021/08/24 03:58:40;;;;;;;;;;;;;;;;;;2106537;28;45766;-73
2021/08/24 03:59:41;;;;;;;;;;;;;;;;;;2106371;28;42319;-73
2021/08/24 04:00:44;;;;;;;;;;;;;;;;;;2114880;28;45454;-71
2021/08/24 04:01:45;;;;;;;;;;;;;;;;;;2114459;28;45597;-72
2021/08/24 04:02:47;;;;;;;;;;;;;;;;;;2114923;28;43215;-72
2021/08/24 04:03:48;;;;;;;;;;;;;;;;;;2115259;28;44626;-72
2021/08/24 04:04:50;;;;;;;;;;;;;;;;;;2114547;28;46075;-71
2021/08/24 04:06:01;;;;;;;;;;;;;;;;;;2106281;28;45499;-71
2021/08/24 04:07:03;;;;;;;;;;;;;;;;;;2114891;28;45519;-71
2021/08/24 04:08:05;;;;;;;;;;;;;;;;;;2114647;28;46565;-72
2021/08/24 04:09:06;;;;;;;;;;;;;;;;;;2114918;28;46680;-72
2021/08/24 04:10:08;;;;;;;;;;;;;;;;;;2123192;27;46473;-72
2021/08/24 04:11:10;;;;;;;;;;;;;;;;;;2114463;28;46475;-72
2021/08/24 04:12:13;;;;;;;;;;;;;;;;;;2106599;28;46639;-71
2021/08/24 04:13:15;;;;;;;;;;;;;;;;;;2106494;28;46861;-72
2021/08/24 04:14:16;;;;;;;;;;;;;;;;;;2115990;27;45781;-71
2021/08/24 04:15:18;;;;;;;;;;;;;;;;;;2123193;27;47316;-72
2021/08/24 04:16:19;;;;;;;;;;;;;;;;;;2123027;27;43968;-72
2021/08/24 04:17:21;;;;;;;;;;;;;;;;;;2123261;27;43401;-72
2021/08/24 04:18:22;;;;;;;;;;;;;;;;;;2114736;27;43930;-71
2021/08/24 04:19:23;;;;;;;;;;;;;;;;;;2114743;27;47180;-72
2021/08/24 04:20:25;;;;;;;;;;;;;;;;;;2123040;27;45805;-72
2021/08/24 04:21:26;;;;;;;;;;;;;;;;;;2122968;27;47033;-72
2021/08/24 04:22:28;;;;;;;;;;;;;;;;;;2123007;27;47017;-71
2021/08/24 04:23:29;;;;;;;;;;;;;;;;;;2122635;27;48579;-71
2021/08/24 04:24:31;;;;;;;;;;;;;;;;;;2123112;27;46064;-72
2021/08/24 04:25:32;;;;;;;;;;;;;;;;;;2114734;27;45706;-71
2021/08/24 04:26:34;;;;;;;;;;;;;;;;;;2114610;27;45967;-71
2021/08/24 04:27:35;;;;;;;;;;;;;;;;;;2122817;27;44454;-71
2021/08/24 04:28:37;;;;;;;;;;;;;;;;;;2123624;27;47595;-71
2021/08/24 04:29:39;;;;;;;;;;;;;;;;;;2123166;27;45771;-72
2021/08/24 04:30:40;;;;;;;;;;;;;;;;;;2122869;27;46959;-72
2021/08/24 04:31:42;;;;;;;;;;;;;;;;;;2123049;27;46075;-72
2021/08/24 04:32:44;;;;;;;;;;;;;;;;;;2122997;27;43782;-71
2021/08/24 04:33:45;;;;;;;;;;;;;;;;;;2123742;27;46260;-71
2021/08/24 04:34:47;;;;;;;;;;;;;;;;;;2123711;27;46011;-71
2021/08/24 04:35:50;;;;;;;;;;;;;;;;;;2123043;27;45255;-72
2021/08/24 04:36:51;;;;;;;;;;;;;;;;;;2122936;27;46582;-72
2021/08/24 04:37:53;;;;;;;;;;;;;;;;;;2122909;27;46325;-72
2021/08/24 04:38:55;;;;;;;;;;;;;;;;;;2122995;27;44223;-72
2021/08/24 04:39:56;;;;;;;;;;;;;;;;;;2123719;27;46534;-72
2021/08/24 04:40:58;;;;;;;;;;;;;;;;;;2123468;27;45243;-72
2021/08/24 04:42:00;;;;;;;;;;;;;;;;;;2123485;27;46416;-72
2021/08/24 04:43:01;;;;;;;;;;;;;;;;;;2123612;27;46822;-72
2021/08/24 04:44:04;;;;;;;;;;;;;;;;;;2123458;27;44388;-73
2021/08/24 04:45:06;;;;;;;;;;;;;;;;;;2114577;27;44035;-73
2021/08/24 04:46:08;;;;;;;;;;;;;;;;;;2123123;27;45783;-73
2021/08/24 04:47:09;;;;;;;;;;;;;;;;;;2123023;27;45482;-72
2021/08/24 04:48:11;;;;;;;;;;;;;;;;;;2122678;27;44571;-72
2021/08/24 04:49:12;;;;;;;;;;;;;;;;;;2122803;27;44990;-73
2021/08/24 04:50:13;;;;;;;;;;;;;;;;;;2114454;27;45378;-72
2021/08/24 04:51:15;;;;;;;;;;;;;;;;;;2122733;27;45582;-72
2021/08/24 04:52:16;;;;;;;;;;;;;;;;;;2123001;27;44202;-72
2021/08/24 04:53:18;;;;;;;;;;;;;;;;;;2123004;27;42465;-73
2021/08/24 04:54:19;;;;;;;;;;;;;;;;;;2122872;27;45211;-72
2021/08/24 04:55:21;;;;;;;;;;;;;;;;;;2123380;27;45892;-72
2021/08/24 04:56:22;;;;;;;;;;;;;;;;;;2123539;27;46245;-72
2021/08/24 04:57:24;;;;;;;;;;;;;;;;;;2122595;27;46541;-72
2021/08/24 04:58:25;;;;;;;;;;;;;;;;;;2122813;27;44657;-72
2021/08/24 04:59:27;;;;;;;;;;;;;;;;;;2122730;27;46611;-72
2021/08/24 05:00:29;;;;;;;;;;;;;;;;;;2123906;27;44214;-70
2021/08/24 05:01:31;;;;;;;;;;;;;;;;;;2122529;27;46597;-70
2021/08/24 05:02:33;;;;;;;;;;;;;;;;;;2123220;27;46617;-70
2021/08/24 05:03:35;;;;;;;;;;;;;;;;;;2123750;27;45686;-70
2021/08/24 05:04:36;;;;;;;;;;;;;;;;;;2123458;27;45408;-70
2021/08/24 05:05:37;;;;;;;;;;;;;;;;;;2123390;27;45290;-70
2021/08/24 05:06:39;;;;;;;;;;;;;;;;;;2123613;27;46544;-70
2021/08/24 05:07:40;;;;;;;;;;;;;;;;;;2122864;27;45480;-70
2021/08/24 05:08:42;;;;;;;;;;;;;;;;;;2114601;27;45270;-70
2021/08/24 05:09:43;;;;;;;;;;;;;;;;;;2122485;27;43609;-71
2021/08/24 05:10:45;;;;;;;;;;;;;;;;;;2123233;27;41440;-71
2021/08/24 05:11:46;;;;;;;;;;;;;;;;;;2122251;27;44324;-71
2021/08/24 05:12:48;;;;;;;;;;;;;;;;;;2122792;27;46833;-71
2021/08/24 05:13:49;;;;;;;;;;;;;;;;;;2122723;27;46855;-71
2021/08/24 05:14:54;;;;;;;;;;;;;;;;;;2114982;27;46842;-71
2021/08/24 05:15:55;;;;;;;;;;;;;;;;;;2114949;27;46450;-71
2021/08/24 05:16:57;;;;;;;;;;;;;;;;;;2114302;27;45712;-71
2021/08/24 05:17:59;;;;;;;;;;;;;;;;;;2122750;27;46482;-71
2021/08/24 05:19:01;;;;;;;;;;;;;;;;;;2122719;27;46118;-71
2021/08/24 05:20:03;;;;;;;;;;;;;;;;;;2114494;27;45496;-71
2021/08/24 05:21:13;;;;;;;;;;;;;;;;;;2122862;27;45809;-71
2021/08/24 05:22:15;;;;;;;;;;;;;;;;;;2122510;27;45797;-71
2021/08/24 05:23:16;;;;;;;;;;;;;;;;;;2114462;27;42489;-71
2021/08/24 05:24:17;;;;;;;;;;;;;;;;;;2122514;27;44474;-70
2021/08/24 05:25:21;;;;;;;;;;;;;;;;;;2122869;27;44525;-71
2021/08/24 05:26:22;;;;;;;;;;;;;;;;;;2114481;27;45472;-71
2021/08/24 05:27:24;;;;;;;;;;;;;;;;;;2122920;27;45833;-71
2021/08/24 05:28:25;;;;;;;;;;;;;;;;;;2114192;27;45858;-71
2021/08/24 05:29:27;;;;;;;;;;;;;;;;;;2122792;27;43485;-70
2021/08/24 05:30:29;;;;;;;;;;;;;;;;;;2123231;27;47258;-70
2021/08/24 05:31:30;;;;;;;;;;;;;;;;;;2122496;27;44466;-71
2021/08/24 05:32:32;;;;;;;;;;;;;;;;;;2122598;27;46749;-70
2021/08/24 05:33:34;;;;;;;;;;;;;;;;;;2122627;27;45837;-71
2021/08/24 05:34:35;;;;;;;;;;;;;;;;;;2121914;27;47007;-70
2021/08/24 05:35:36;;;;;;;;;;;;;;;;;;2122234;27;47325;-71
2021/08/24 05:36:38;;;;;;;;;;;;;;;;;;2114261;27;46786;-70
2021/08/24 05:37:43;;;;;;;;;;;;;;;;;;2122528;27;46651;-70
2021/08/24 05:38:48;;;;;;;;;;;;;;;;;;2115002;27;44605;-70
2021/08/24 05:39:51;;;;;;;;;;;;;;;;;;2115050;27;46238;-71
2021/08/24 05:40:55;;;;;;;;;;;;;;;;;;2122962;27;46790;-70
2021/08/24 05:41:56;;;;;;;;;;;;;;;;;;2123320;27;46353;-70
2021/08/24 05:42:58;;;;;;;;;;;;;;;;;;2122485;27;45096;-70
2021/08/24 05:43:59;;;;;;;;;;;;;;;;;;2122650;27;46513;-70
2021/08/24 05:45:01;;;;;;;;;;;;;;;;;;2114391;27;45114;-70
2021/08/24 05:46:07;;;;;;;;;;;;;;;;;;2114603;28;42978;-70
2021/08/24 05:47:09;;;;;;;;;;;;;;;;;;2114259;28;46364;-70
2021/08/24 05:48:11;;;;;;;;;;;;;;;;;;2113952;28;42485;-70
2021/08/24 05:49:12;;;;;;;;;;;;;;;;;;2105373;28;43819;-70
2021/08/24 05:50:14;;;;;;;;;;;;;;;;;;2114193;28;45333;-69
2021/08/24 05:51:18;;;;;;;;;;;;;;;;;;2113242;28;46584;-71
2021/08/24 05:52:19;;;;;;;;;;;;;;;;;;2114407;28;44435;-71
2021/08/24 05:53:21;;;;;;;;;;;;;;;;;;2114469;27;45275;-70
2021/08/24 05:54:22;;;;;;;;;;;;;;;;;;2114109;28;45482;-70
2021/08/24 05:55:24;;;;;;;;;;;;;;;;;;2114075;28;46625;-70
2021/08/24 05:56:26;;;;;;;;;;;;;;;;;;2113889;28;46467;-71
2021/08/24 05:57:28;;;;;;;;;;;;;;;;;;2114011;28;45261;-71
2021/08/24 05:58:29;;;;;;;;;;;;;;;;;;2113933;28;43874;-72
2021/08/24 05:59:32;;;;;;;;;;;;;;;;;;2114138;28;45320;-72
2021/08/24 06:00:34;;;;;;;;;;;;;;;;;;2114018;28;45128;-71
2021/08/24 06:01:35;;;;;;;;;;;;;;;;;;2113920;28;43680;-70
2021/08/24 06:02:37;;;;;;;;;;;;;;;;;;2114347;28;45461;-70
2021/08/24 06:03:41;;;;;;;;;;;;;;;;;;2113903;28;44958;-70
2021/08/24 06:04:43;;;;;;;;;;;;;;;;;;2114623;27;44895;-70
2021/08/24 06:05:44;;;;;;;;;;;;;;;;;;2114509;28;43886;-71
2021/08/24 06:06:46;;;;;;;;;;;;;;;;;;2114704;28;45458;-70
2021/08/24 06:07:47;;;;;;;;;;;;;;;;;;2114212;28;45252;-70
2021/08/24 06:08:48;;;;;;;;;;;;;;;;;;2114294;28;45383;-71
2021/08/24 06:09:50;;;;;;;;;;;;;;;;;;2114270;28;46451;-71
2021/08/24 06:10:51;;;;;;;;;;;;;;;;;;2113960;28;45288;-71
2021/08/24 06:11:53;;;;;;;;;;;;;;;;;;2114300;28;46728;-71
2021/08/24 06:12:54;;;;;;;;;;;;;;;;;;2114019;28;45362;-71
2021/08/24 06:13:57;;;;;;;;;;;;;;;;;;2114314;28;45388;-71
2021/08/24 06:15:02;;;;;;;;;;;;;;;;;;2114510;27;46493;-71
2021/08/24 06:16:04;;;;;;;;;;;;;;;;;;2115591;27;45322;-71
2021/08/24 06:17:05;;;;;;;;;;;;;;;;;;2114559;27;44550;-71
2021/08/24 06:18:07;;;;;;;;;;;;;;;;;;2105616;28;46809;-71
2021/08/24 06:19:09;;;;;;;;;;;;;;;;;;2113731;27;44321;-71
2021/08/24 06:20:11;;;;;;;;;;;;;;;;;;2114096;28;43186;-71
2021/08/24 06:21:12;;;;;;;;;;;;;;;;;;2113741;28;45403;-72
2021/08/24 06:22:14;;;;;;;;;;;;;;;;;;2114007;28;46404;-71
2021/08/24 06:23:15;;;;;;;;;;;;;;;;;;2113616;28;44431;-71
2021/08/24 06:24:17;;;;;;;;;;;;;;;;;;2114354;28;46911;-71
2021/08/24 06:25:19;;;;;;;;;;;;;;;;;;2113781;28;45021;-72
2021/08/24 06:26:20;;;;;;;;;;;;;;;;;;2113838;28;47105;-71
2021/08/24 06:27:25;;;;;;;;;;;;;;;;;;2113834;28;45860;-72
2021/08/24 06:28:26;;;;;;;;;;;;;;;;;;2113881;28;47051;-72
2021/08/24 06:29:28;;;;;;;;;;;;;;;;;;2113994;28;46149;-72
2021/08/24 06:30:29;;;;;;;;;;;;;;;;;;2113815;28;44667;-72
2021/08/24 06:31:31;;;;;;;;;;;;;;;;;;2114194;27;46919;-72
2021/08/24 06:32:35;;;;;;;;;;;;;;;;;;2114612;27;45859;-72
2021/08/24 06:33:37;;;;;;;;;;;;;;;;;;2114577;27;44080;-72
2021/08/24 06:34:39;;;;;;;;;;;;;;;;;;2114271;27;43793;-72
2021/08/24 06:35:41;;;;;;;;;;;;;;;;;;2105644;28;46959;-72
2021/08/24 06:36:43;;;;;;;;;;;;;;;;;;2105992;28;44000;-72
2021/08/24 06:37:44;;;;;;;;;;;;;;;;;;2105313;28;43698;-72
2021/08/24 06:38:46;;;;;;;;;;;;;;;;;;2113914;28;47286;-71
2021/08/24 06:39:47;;;;;;;;;;;;;;;;;;2113842;28;47312;-71
2021/08/24 06:40:49;;;;;;;;;;;;;;;;;;2113937;28;46020;-71
2021/08/24 06:41:50;;;;;;;;;;;;;;;;;;2113652;28;45885;-71
2021/08/24 06:42:53;;;;;;;;;;;;;;;;;;2113831;28;47661;-71
2021/08/24 06:43:54;;;;;;;;;;;;;;;;;;2113600;28;45831;-70
2021/08/24 06:44:55;;;;;;;;;;;;;;;;;;2113571;27;43678;-71
2021/08/24 06:45:57;;;;;;;;;;;;;;;;;;2113152;27;45745;-71
2021/08/24 06:46:59;;;;;;;;;;;;;;;;;;2114414;28;43514;-71
2021/08/24 06:48:03;;;;;;;;;;;;;;;;;;2113931;27;44513;-71
2021/08/24 06:49:05;;;;;;;;;;;;;;;;;;2114650;27;46525;-71
2021/08/24 06:50:06;;;;;;;;;;;;;;;;;;2113548;28;46495;-71
2021/08/24 06:51:09;;;;;;;;;;;;;;;;;;2113682;28;45199;-72
2021/08/24 06:52:10;;;;;;;;;;;;;;;;;;2114395;27;44287;-71
2021/08/24 06:53:12;;;;;;;;;;;;;;;;;;2113935;28;46375;-71
2021/08/24 06:54:13;;;;;;;;;;;;;;;;;;2105495;28;43900;-71
2021/08/24 06:55:15;;;;;;;;;;;;;;;;;;2114346;28;43255;-72
2021/08/24 06:56:16;;;;;;;;;;;;;;;;;;2113623;28;45491;-72
2021/08/24 06:57:18;;;;;;;;;;;;;;;;;;2113631;28;45414;-72
2021/08/24 06:58:22;;;;;;;;;;;;;;;;;;2114157;27;44681;-72
2021/08/24 06:59:24;;;;;;;;;;;;;;;;;;2113547;28;45344;-72
2021/08/24 07:00:25;;;;;;;;;;;;;;;;;;2113839;28;46422;-72
2021/08/24 07:01:29;;;;;;;;;;;;;;;;;;2105480;28;45043;-72
2021/08/24 07:02:30;;;;;;;;;;;;;;;;;;2105180;28;41776;-72
2021/08/24 07:03:34;;;;;;;;;;;;;;;;;;2114435;28;43373;-72
2021/08/24 07:04:36;;;;;;;;;;;;;;;;;;2113931;28;45490;-71
2021/08/24 07:05:40;;;;;;;;;;;;;;;;;;2114437;27;45149;-71
2021/08/24 07:06:47;;;;;;;;;;;;;;;;;;2113545;28;46999;-71
2021/08/24 07:07:48;;;;;;;;;;;;;;;;;;2113630;28;45287;-72
2021/08/24 07:08:54;;;;;;;;;;;;;;;;;;2114153;28;46182;-72
2021/08/24 07:09:55;;;;;;;;;;;;;;;;;;2114128;28;43457;-71
2021/08/24 07:10:56;;;;;;;;;;;;;;;;;;2113996;27;43895;-72
2021/08/24 07:12:04;;;;;;;;;;;;;;;;;;2113590;28;46890;-72
2021/08/24 07:13:06;;;;;;;;;;;;;;;;;;2113682;28;46027;-73